Time;durP1;ratioP1;P1;durP2;ratioP2;P2;SDS_P1;SDS_P2;PMS_P1;PMS_P2;Temp;Humidity;BMP_temperature;BMP_pressure;BME280_temperature;BME280_humidity;BME280_pressure;Samples;Min_cycle;Max_cycle;Signal;HPM_P1;HPM_P2
2024/03/17 00:00:39;;;;;;;17.08;2.47;;;;;;;;;;5088271;28;20031;-59
2024/03/17 00:03:05;;;;;;;11.02;2.00;;;;;;;;;;5078282;28;20021;-58
2024/03/17 00:05:31;;;;;;;6.80;1.73;;;;;;;;;;5076252;28;20054;-59
2024/03/17 00:07:57;;;;;;;8.50;2.20;;;;;;;;;;5078647;28;20036;-59
2024/03/17 00:10:23;;;;;;;11.65;2.38;;;;;;;;;;5081240;28;20029;-59
2024/03/17 00:12:49;;;;;;;18.55;1.77;;;;;;;;;;5082308;28;20099;-59
2024/03/17 00:15:15;;;;;;;8.13;1.55;;;;;;;;;;5087845;28;20028;-58
2024/03/17 00:17:41;;;;;;;10.43;1.60;;;;;;;;;;5079118;28;20039;-59
2024/03/17 00:20:18;;;;;;;18.50;2.60;;;;;;;;;;5073781;28;20115;-59
2024/03/17 00:22:46;;;;;;;17.25;2.55;;;;;;;;;;5074331;28;20040;-58
2024/03/17 00:25:12;;;;;;;11.63;2.00;;;;;;;;;;5078075;28;20036;-59
2024/03/17 00:27:40;;;;;;;15.57;1.65;;;;;;;;;;5080087;28;20387;-57
2024/03/17 00:30:12;;;;;;;10.85;2.08;;;;;;;;;;5087336;28;20028;-58
2024/03/17 00:32:38;;;;;;;9.52;1.40;;;;;;;;;;5085034;28;20487;-57
2024/03/17 00:35:04;;;;;;;16.95;1.90;;;;;;;;;;5083109;28;20056;-56
2024/03/17 00:37:30;;;;;;;12.32;1.95;;;;;;;;;;5077470;28;20123;-57
2024/03/17 00:39:56;;;;;;;14.82;2.35;;;;;;;;;;5080112;28;20031;-55
2024/03/17 00:42:22;;;;;;;11.63;1.88;;;;;;;;;;5090846;28;20042;-57
2024/03/17 00:44:48;;;;;;;11.82;2.28;;;;;;;;;;5088048;28;20088;-57
2024/03/17 00:47:14;;;;;;;8.15;2.33;;;;;;;;;;5078601;28;20028;-57
2024/03/17 00:49:40;;;;;;;9.25;1.88;;;;;;;;;;5092748;28;20027;-57
2024/03/17 00:52:06;;;;;;;9.43;1.58;;;;;;;;;;5091206;28;20091;-57
2024/03/17 00:54:32;;;;;;;13.77;1.63;;;;;;;;;;5085549;28;20020;-58
2024/03/17 00:56:58;;;;;;;9.95;2.33;;;;;;;;;;5077028;28;20522;-58
2024/03/17 00:59:24;;;;;;;6.88;1.85;;;;;;;;;;5074812;28;20407;-57
2024/03/17 01:01:50;;;;;;;9.20;2.03;;;;;;;;;;5099441;28;20390;-57
2024/03/17 01:04:16;;;;;;;15.85;2.03;;;;;;;;;;5074859;28;20408;-57
2024/03/17 01:06:42;;;;;;;13.07;1.83;;;;;;;;;;5075411;28;20032;-56
2024/03/17 01:09:08;;;;;;;13.10;1.60;;;;;;;;;;5077385;28;20459;-57
2024/03/17 01:11:34;;;;;;;12.05;1.67;;;;;;;;;;5072583;28;20020;-56
2024/03/17 01:14:00;;;;;;;14.27;1.77;;;;;;;;;;5086783;28;20717;-57
2024/03/17 01:16:27;;;;;;;10.98;1.90;;;;;;;;;;5092252;28;20016;-57
2024/03/17 01:18:52;;;;;;;12.85;1.70;;;;;;;;;;5084043;28;20081;-58
2024/03/17 01:21:20;;;;;;;16.70;2.20;;;;;;;;;;5104093;28;20051;-56
2024/03/17 01:23:46;;;;;;;7.10;1.70;;;;;;;;;;5086071;28;20495;-57
2024/03/17 01:26:12;;;;;;;7.93;1.75;;;;;;;;;;5092108;28;20028;-57
2024/03/17 01:28:38;;;;;;;12.43;1.95;;;;;;;;;;5090913;28;20024;-58
2024/03/17 01:31:06;;;;;;;10.27;1.70;;;;;;;;;;5088455;28;20495;-56
2024/03/17 01:33:32;;;;;;;7.05;2.03;;;;;;;;;;5090983;28;20470;-57
2024/03/17 01:35:58;;;;;;;11.90;1.88;;;;;;;;;;5090115;28;20024;-57
2024/03/17 01:38:24;;;;;;;7.25;2.05;;;;;;;;;;5088352;28;20403;-58
2024/03/17 01:40:50;;;;;;;14.70;1.95;;;;;;;;;;5087970;28;20357;-59
2024/03/17 01:43:16;;;;;;;12.00;1.60;;;;;;;;;;5079588;28;20060;-57
2024/03/17 01:45:43;;;;;;;15.77;1.50;;;;;;;;;;5091714;28;20028;-57
2024/03/17 01:48:11;;;;;;;17.23;2.72;;;;;;;;;;5089425;28;20551;-58
2024/03/17 01:50:37;;;;;;;10.52;1.58;;;;;;;;;;5087003;28;20035;-58
2024/03/17 01:53:04;;;;;;;12.05;1.95;;;;;;;;;;5077858;28;20035;-58
2024/03/17 01:55:31;;;;;;;5.53;1.70;;;;;;;;;;5077147;28;20059;-56
2024/03/17 01:57:57;;;;;;;18.45;2.85;;;;;;;;;;5076654;28;20033;-60
2024/03/17 02:00:23;;;;;;;18.30;2.15;;;;;;;;;;5079680;28;20032;-58
2024/03/17 02:02:51;;;;;;;10.13;1.77;;;;;;;;;;5072056;28;20047;-60
2024/03/17 02:05:17;;;;;;;11.77;2.28;;;;;;;;;;5071649;28;20074;-57
2024/03/17 02:07:43;;;;;;;14.32;2.25;;;;;;;;;;5071709;28;20089;-57
2024/03/17 02:10:09;;;;;;;11.52;1.83;;;;;;;;;;5083472;28;20032;-57
2024/03/17 02:12:35;;;;;;;13.10;2.05;;;;;;;;;;5080154;28;20033;-57
2024/03/17 02:15:05;;;;;;;8.43;2.67;;;;;;;;;;5084652;28;20178;-60
2024/03/17 02:17:31;;;;;;;11.30;2.00;;;;;;;;;;5080973;28;20024;-57
2024/03/17 02:19:57;;;;;;;12.15;1.80;;;;;;;;;;5075394;28;20039;-60
2024/03/17 02:22:23;;;;;;;20.92;2.47;;;;;;;;;;5092944;28;20035;-58
2024/03/17 02:24:49;;;;;;;12.80;1.55;;;;;;;;;;5088790;28;20111;-58
2024/03/17 02:27:15;;;;;;;11.77;1.92;;;;;;;;;;5089379;28;20020;-59
2024/03/17 02:29:41;;;;;;;16.70;1.50;;;;;;;;;;5073283;28;20020;-57
2024/03/17 02:32:07;;;;;;;6.93;2.08;;;;;;;;;;5078667;28;20032;-59
2024/03/17 02:34:34;;;;;;;8.07;1.90;;;;;;;;;;5088677;28;20020;-57
2024/03/17 02:37:00;;;;;;;10.52;1.70;;;;;;;;;;5088530;28;20495;-57
2024/03/17 02:39:36;;;;;;;8.13;1.52;;;;;;;;;;5093468;28;20020;-58
2024/03/17 02:42:03;;;;;;;18.17;2.20;;;;;;;;;;5089117;28;20538;-57
2024/03/17 02:44:30;;;;;;;17.23;2.22;;;;;;;;;;5087166;28;20039;-60
2024/03/17 02:46:57;;;;;;;16.45;2.67;;;;;;;;;;5090837;28;20020;-58
2024/03/17 02:49:23;;;;;;;7.75;1.75;;;;;;;;;;5094118;28;20479;-58
2024/03/17 02:51:49;;;;;;;14.13;1.77;;;;;;;;;;5079820;28;20102;-55
2024/03/17 02:54:15;;;;;;;12.00;2.13;;;;;;;;;;5076731;28;20063;-58
2024/03/17 02:56:41;;;;;;;11.80;1.58;;;;;;;;;;5077683;28;20062;-59
2024/03/17 02:59:07;;;;;;;8.50;1.63;;;;;;;;;;5086301;28;20433;-58
2024/03/17 03:01:34;;;;;;;20.13;2.05;;;;;;;;;;5094478;28;20097;-56
2024/03/17 03:04:00;;;;;;;8.30;1.40;;;;;;;;;;5078407;28;20033;-58
2024/03/17 03:06:26;;;;;;;11.07;1.60;;;;;;;;;;5090783;28;20032;-56
2024/03/17 03:08:52;;;;;;;11.77;2.08;;;;;;;;;;5084912;28;20024;-57
2024/03/17 03:11:18;;;;;;;14.80;2.15;;;;;;;;;;5086536;28;20073;-59
2024/03/17 03:13:44;;;;;;;8.05;1.95;;;;;;;;;;5093380;28;20418;-55
2024/03/17 03:16:11;;;;;;;8.57;1.60;;;;;;;;;;5077883;28;20044;-58
2024/03/17 03:18:39;;;;;;;7.75;1.73;;;;;;;;;;5078284;28;20077;-59
2024/03/17 03:21:05;;;;;;;16.27;2.03;;;;;;;;;;5074575;28;20508;-58
2024/03/17 03:23:31;;;;;;;9.57;1.70;;;;;;;;;;5085797;28;20064;-58
2024/03/17 03:25:58;;;;;;;11.50;1.63;;;;;;;;;;5088459;28;20476;-56
2024/03/17 03:28:24;;;;;;;13.48;2.05;;;;;;;;;;5082805;28;20377;-58
2024/03/17 03:30:51;;;;;;;12.52;1.98;;;;;;;;;;5088641;28;20499;-55
2024/03/17 03:33:17;;;;;;;8.30;2.05;;;;;;;;;;5085414;28;20134;-55
2024/03/17 03:35:43;;;;;;;9.93;1.75;;;;;;;;;;5075205;28;20039;-57
2024/03/17 03:38:09;;;;;;;12.27;1.90;;;;;;;;;;5076033;28;20450;-56
2024/03/17 03:40:36;;;;;;;7.30;1.52;;;;;;;;;;5089313;28;20374;-56
2024/03/17 03:43:02;;;;;;;12.13;2.10;;;;;;;;;;5084227;28;20145;-58
2024/03/17 03:45:28;;;;;;;13.70;2.00;;;;;;;;;;5081683;28;20028;-56
2024/03/17 03:47:54;;;;;;;9.15;1.88;;;;;;;;;;5080603;28;20048;-58
2024/03/17 03:50:21;;;;;;;8.45;2.40;;;;;;;;;;5085539;28;20025;-55
2024/03/17 03:52:47;;;;;;;10.88;1.85;;;;;;;;;;5077464;28;20020;-55
2024/03/17 03:55:17;;;;;;;9.02;1.88;;;;;;;;;;5082118;28;20039;-55
2024/03/17 03:57:47;;;;;;;15.32;2.05;;;;;;;;;;5075173;28;20033;-52
2024/03/17 04:00:14;;;;;;;15.70;2.05;;;;;;;;;;5081529;28;20036;-55
2024/03/17 04:02:41;;;;;;;10.00;2.00;;;;;;;;;;5078380;28;20039;-53
2024/03/17 04:05:07;;;;;;;10.30;2.03;;;;;;;;;;5077136;28;20398;-54
2024/03/17 04:07:34;;;;;;;10.88;2.10;;;;;;;;;;5081906;28;20019;-51
2024/03/17 04:10:00;;;;;;;12.27;1.88;;;;;;;;;;5084957;28;20066;-54
2024/03/17 04:12:26;;;;;;;13.52;1.90;;;;;;;;;;5075728;28;20028;-55
2024/03/17 04:14:53;;;;;;;15.32;2.20;;;;;;;;;;5079894;28;20024;-55
2024/03/17 04:17:21;;;;;;;8.48;2.10;;;;;;;;;;5077242;28;20107;-55
2024/03/17 04:19:47;;;;;;;11.88;1.95;;;;;;;;;;5093196;28;20047;-53
2024/03/17 04:22:13;;;;;;;7.13;1.48;;;;;;;;;;5087896;28;20035;-53
2024/03/17 04:24:39;;;;;;;13.55;2.15;;;;;;;;;;5091837;28;20027;-53
2024/03/17 04:27:05;;;;;;;11.80;2.15;;;;;;;;;;5087725;28;20024;-56
2024/03/17 04:29:31;;;;;;;10.90;2.25;;;;;;;;;;5092976;28;20023;-52
2024/03/17 04:31:57;;;;;;;10.98;2.20;;;;;;;;;;5074936;28;20515;-53
2024/03/17 04:34:23;;;;;;;7.80;1.73;;;;;;;;;;5072581;28;20490;-55
2024/03/17 04:36:49;;;;;;;10.15;2.05;;;;;;;;;;5076035;28;20028;-53
2024/03/17 04:39:15;;;;;;;9.13;1.85;;;;;;;;;;5092796;28;20479;-56
2024/03/17 04:41:43;;;;;;;12.48;2.17;;;;;;;;;;5074757;28;20024;-54
2024/03/17 04:44:09;;;;;;;10.30;1.83;;;;;;;;;;5073042;28;20032;-55
2024/03/17 04:46:35;;;;;;;8.55;1.77;;;;;;;;;;5073965;28;20021;-52
2024/03/17 04:49:03;;;;;;;14.75;2.47;;;;;;;;;;5072910;28;20025;-56
2024/03/17 04:51:29;;;;;;;14.48;1.88;;;;;;;;;;5079548;28;20593;-56
2024/03/17 04:53:55;;;;;;;9.95;2.55;;;;;;;;;;5095525;28;20016;-52
2024/03/17 04:56:21;;;;;;;13.23;2.00;;;;;;;;;;5092488;28;20028;-54
2024/03/17 04:58:47;;;;;;;15.40;2.58;;;;;;;;;;5083800;28;20032;-52
2024/03/17 05:01:13;;;;;;;17.02;2.50;;;;;;;;;;5072321;28;20020;-53
2024/03/17 05:03:39;;;;;;;8.27;1.80;;;;;;;;;;5074319;28;20044;-56
2024/03/17 05:06:06;;;;;;;10.25;2.03;;;;;;;;;;5091047;28;20052;-50
2024/03/17 05:08:34;;;;;;;12.88;1.90;;;;;;;;;;5095070;28;20030;-55
2024/03/17 05:11:00;;;;;;;15.95;2.22;;;;;;;;;;5084777;28;20024;-53
2024/03/17 05:13:27;;;;;;;13.48;2.33;;;;;;;;;;5077804;28;20028;-52
2024/03/17 05:15:53;;;;;;;9.27;1.98;;;;;;;;;;5086582;28;20097;-55
2024/03/17 05:18:20;;;;;;;8.63;1.73;;;;;;;;;;5089067;28;20486;-51
2024/03/17 05:20:49;;;;;;;13.65;2.75;;;;;;;;;;5097554;28;20526;-53
2024/03/17 05:23:15;;;;;;;16.02;2.40;;;;;;;;;;5086561;28;20407;-56
2024/03/17 05:25:41;;;;;;;13.25;2.05;;;;;;;;;;5095020;28;20024;-55
2024/03/17 05:28:07;;;;;;;7.63;2.05;;;;;;;;;;5090428;28;20434;-51
2024/03/17 05:30:36;;;;;;;14.43;2.65;;;;;;;;;;5084978;28;20364;-53
2024/03/17 05:33:02;;;;;;;11.68;1.77;;;;;;;;;;5088790;28;20125;-55
2024/03/17 05:35:28;;;;;;;12.10;2.00;;;;;;;;;;5091249;28;20488;-53
2024/03/17 05:37:54;;;;;;;12.98;1.80;;;;;;;;;;5090781;28;20040;-51
2024/03/17 05:40:20;;;;;;;13.65;2.50;;;;;;;;;;5087989;28;20047;-50
2024/03/17 05:42:46;;;;;;;4.28;1.33;;;;;;;;;;5088907;28;20032;-54
2024/03/17 05:45:12;;;;;;;7.95;1.55;;;;;;;;;;5090994;28;20036;-55
2024/03/17 05:47:38;;;;;;;9.60;1.77;;;;;;;;;;5092873;28;20028;-51
2024/03/17 05:50:05;;;;;;;15.35;2.42;;;;;;;;;;5091389;28;20036;-54
2024/03/17 05:52:31;;;;;;;16.40;2.13;;;;;;;;;;5093785;28;20383;-54
2024/03/17 05:54:56;;;;;;;24.27;2.08;;;;;;;;;;5090080;28;20040;-54
2024/03/17 05:57:24;;;;;;;19.13;1.85;;;;;;;;;;5087797;28;20485;-56
2024/03/17 05:59:50;;;;;;;12.55;2.50;;;;;;;;;;5094539;28;20024;-56
2024/03/17 06:02:16;;;;;;;14.40;2.50;;;;;;;;;;5093772;28;20031;-52
2024/03/17 06:04:42;;;;;;;15.93;1.92;;;;;;;;;;5089040;28;20531;-54
2024/03/17 06:07:08;;;;;;;19.38;2.72;;;;;;;;;;5090479;28;20024;-56
2024/03/17 06:09:34;;;;;;;13.05;2.17;;;;;;;;;;5094697;28;20023;-55
2024/03/17 06:12:00;;;;;;;13.18;1.83;;;;;;;;;;5090341;28;20020;-53
2024/03/17 06:14:26;;;;;;;18.52;1.92;;;;;;;;;;5084412;28;20403;-54
2024/03/17 06:16:52;;;;;;;17.25;2.10;;;;;;;;;;5093062;28;20043;-52
2024/03/17 06:19:18;;;;;;;20.13;2.22;;;;;;;;;;5089353;28;20055;-56
2024/03/17 06:21:44;;;;;;;8.38;1.85;;;;;;;;;;5091958;28;20521;-56
2024/03/17 06:24:11;;;;;;;11.50;2.13;;;;;;;;;;5093478;28;20020;-56
2024/03/17 06:26:36;;;;;;;11.00;2.13;;;;;;;;;;5088512;28;20114;-56
2024/03/17 06:29:02;;;;;;;7.90;2.30;;;;;;;;;;5086643;28;20157;-57
2024/03/17 06:31:28;;;;;;;12.63;2.55;;;;;;;;;;5090892;28;20024;-56
2024/03/17 06:33:54;;;;;;;11.45;2.88;;;;;;;;;;5089833;28;20497;-56
2024/03/17 06:36:21;;;;;;;15.70;2.90;;;;;;;;;;5089166;28;20073;-56
2024/03/17 06:38:47;;;;;;;12.10;1.92;;;;;;;;;;5084800;28;20021;-58
2024/03/17 06:41:14;;;;;;;23.80;2.10;;;;;;;;;;5085744;28;20157;-56
2024/03/17 06:43:43;;;;;;;12.80;2.20;;;;;;;;;;5087645;28;20036;-56
2024/03/17 06:46:09;;;;;;;19.70;2.65;;;;;;;;;;5088334;28;20036;-56
2024/03/17 06:48:35;;;;;;;13.70;2.35;;;;;;;;;;5089657;28;20051;-56
2024/03/17 06:51:01;;;;;;;21.05;2.72;;;;;;;;;;5089855;28;20032;-58
2024/03/17 06:53:27;;;;;;;19.73;2.95;;;;;;;;;;5085813;28;20033;-56
2024/03/17 06:55:54;;;;;;;19.38;2.75;;;;;;;;;;5089281;28;20039;-55
2024/03/17 06:58:22;;;;;;;18.42;2.17;;;;;;;;;;5082631;28;20016;-53
2024/03/17 07:00:55;;;;;;;19.13;2.60;;;;;;;;;;5088815;28;20024;-56
2024/03/17 07:03:23;;;;;;;14.77;2.55;;;;;;;;;;5088267;28;20035;-54
2024/03/17 07:05:55;;;;;;;17.75;4.88;;;;;;;;;;5086404;28;20032;-56
2024/03/17 07:08:21;;;;;;;17.02;2.20;;;;;;;;;;5084095;28;20078;-56
2024/03/17 07:11:00;;;;;;;13.70;1.80;;;;;;;;;;5091445;28;20035;-55
2024/03/17 07:13:25;;;;;;;20.35;2.80;;;;;;;;;;5088377;28;20026;-58
2024/03/17 07:15:51;;;;;;;14.48;3.08;;;;;;;;;;5090704;28;20479;-56
2024/03/17 07:18:17;;;;;;;8.50;2.33;;;;;;;;;;5093278;28;20427;-56
2024/03/17 07:20:43;;;;;;;21.83;2.83;;;;;;;;;;5091255;28;20121;-56
2024/03/17 07:23:10;;;;;;;13.23;2.42;;;;;;;;;;5088083;28;20672;-56
2024/03/17 07:25:37;;;;;;;26.50;2.78;;;;;;;;;;5086528;28;20142;-56
2024/03/17 07:28:03;;;;;;;18.67;2.67;;;;;;;;;;5088913;28;20545;-53
2024/03/17 07:30:29;;;;;;;9.48;2.75;;;;;;;;;;5087302;28;20024;-56
2024/03/17 07:32:55;;;;;;;18.60;2.72;;;;;;;;;;5093211;28;20495;-56
2024/03/17 07:35:21;;;;;;;14.55;2.03;;;;;;;;;;5091330;28;20047;-55
2024/03/17 07:37:47;;;;;;;19.25;2.17;;;;;;;;;;5091305;28;20036;-53
2024/03/17 07:40:15;;;;;;;13.63;2.45;;;;;;;;;;5092773;28;20097;-54
2024/03/17 07:42:42;;;;;;;13.85;2.75;;;;;;;;;;5090758;28;20036;-53
2024/03/17 07:45:08;;;;;;;7.53;2.08;;;;;;;;;;5092824;28;20032;-55
2024/03/17 07:47:35;;;;;;;16.48;2.88;;;;;;;;;;5089330;28;20028;-53
2024/03/17 07:50:08;;;;;;;13.23;2.15;;;;;;;;;;5085337;28;20077;-56
2024/03/17 07:52:34;;;;;;;19.93;2.93;;;;;;;;;;5092103;28;20060;-54
2024/03/17 07:54:59;;;;;;;19.95;2.55;;;;;;;;;;5081824;28;20032;-55
2024/03/17 07:57:26;;;;;;;11.13;1.98;;;;;;;;;;5083550;28;20028;-53
2024/03/17 07:59:52;;;;;;;10.15;2.65;;;;;;;;;;5088152;28;20035;-52
2024/03/17 08:02:18;;;;;;;21.80;2.88;;;;;;;;;;5088908;28;20036;-53
2024/03/17 08:04:44;;;;;;;13.77;1.77;;;;;;;;;;5087580;28;20106;-51
2024/03/17 08:07:10;;;;;;;11.30;2.03;;;;;;;;;;5085665;28;20522;-54
2024/03/17 08:09:37;;;;;;;13.02;2.28;;;;;;;;;;5092290;28;20434;-52
2024/03/17 08:12:04;;;;;;;13.38;2.13;;;;;;;;;;5089374;28;20451;-54
2024/03/17 08:14:30;;;;;;;12.23;2.15;;;;;;;;;;5091604;28;20044;-53
2024/03/17 08:16:56;;;;;;;13.02;2.15;;;;;;;;;;5092023;28;20032;-52
2024/03/17 08:19:22;;;;;;;9.70;1.63;;;;;;;;;;5091015;28;20024;-53
2024/03/17 08:21:48;;;;;;;13.63;2.25;;;;;;;;;;5092902;28;20503;-56
2024/03/17 08:24:15;;;;;;;11.27;1.90;;;;;;;;;;5090975;28;20031;-53
2024/03/17 08:26:41;;;;;;;16.92;2.38;;;;;;;;;;5090764;28;20043;-55
2024/03/17 08:29:07;;;;;;;11.88;1.75;;;;;;;;;;5091001;28;20020;-56
2024/03/17 08:31:33;;;;;;;11.02;2.20;;;;;;;;;;5088884;28;20130;-54
2024/03/17 08:33:59;;;;;;;7.93;1.77;;;;;;;;;;5089789;28;20402;-56
2024/03/17 08:36:25;;;;;;;19.77;2.13;;;;;;;;;;5091074;28;20035;-56
2024/03/17 08:38:51;;;;;;;8.52;1.65;;;;;;;;;;5090874;28;20028;-60
2024/03/17 08:41:18;;;;;;;14.32;2.50;;;;;;;;;;5093957;28;20032;-60
2024/03/17 08:43:44;;;;;;;6.28;1.70;;;;;;;;;;5083919;28;20027;-60
2024/03/17 08:46:10;;;;;;;10.85;1.90;;;;;;;;;;5091464;28;20541;-60
2024/03/17 08:48:38;;;;;;;12.73;2.28;;;;;;;;;;5091299;28;20471;-60
2024/03/17 08:51:05;;;;;;;12.60;1.70;;;;;;;;;;5086309;28;20090;-60
2024/03/17 08:53:31;;;;;;;14.20;2.40;;;;;;;;;;5091360;28;20476;-59
2024/03/17 08:55:57;;;;;;;10.05;1.67;;;;;;;;;;5091331;28;20442;-59
2024/03/17 08:58:23;;;;;;;11.27;1.63;;;;;;;;;;5084963;28;20024;-58
2024/03/17 09:00:50;;;;;;;4.82;1.40;;;;;;;;;;5081399;28;20032;-60
2024/03/17 09:03:16;;;;;;;9.50;1.88;;;;;;;;;;5083857;28;20020;-59
2024/03/17 09:05:44;;;;;;;8.23;2.13;;;;;;;;;;5084699;28;20097;-60
2024/03/17 09:08:30;;;;;;;11.73;1.50;;;;;;;;;;5086594;28;20031;-59
2024/03/17 09:10:56;;;;;;;12.35;2.05;;;;;;;;;;5083367;28;20028;-60
2024/03/17 09:13:23;;;;;;;14.07;1.98;;;;;;;;;;5079481;28;20032;-60
2024/03/17 09:15:56;;;;;;;7.97;1.20;;;;;;;;;;5081547;28;20024;-60
2024/03/17 09:18:22;;;;;;;13.40;2.03;;;;;;;;;;5087855;28;20510;-57
2024/03/17 09:21:04;;;;;;;8.75;1.80;;;;;;;;;;5086553;28;20070;-60
2024/03/17 09:23:31;;;;;;;13.98;2.50;;;;;;;;;;5088369;28;20085;-60
2024/03/17 09:25:58;;;;;;;11.98;2.22;;;;;;;;;;5086100;28;20031;-60
2024/03/17 09:28:24;;;;;;;10.70;2.05;;;;;;;;;;5084083;28;20075;-60
2024/03/17 09:30:52;;;;;;;8.82;1.33;;;;;;;;;;5090836;28;20657;-58
2024/03/17 09:33:18;;;;;;;7.18;1.10;;;;;;;;;;5082296;28;20031;-59
2024/03/17 09:35:43;;;;;;;6.28;1.17;;;;;;;;;;5077840;28;20480;-59
2024/03/17 09:38:09;;;;;;;7.38;1.42;;;;;;;;;;5083872;28;20386;-60
2024/03/17 09:40:35;;;;;;;5.55;1.25;;;;;;;;;;5085420;28;20117;-60
2024/03/17 09:43:01;;;;;;;7.28;1.50;;;;;;;;;;5086979;28;20040;-60
2024/03/17 09:45:28;;;;;;;7.32;1.27;;;;;;;;;;5090791;28;20061;-60
2024/03/17 09:47:54;;;;;;;12.40;1.63;;;;;;;;;;5084979;28;20024;-56
2024/03/17 09:50:20;;;;;;;4.75;1.30;;;;;;;;;;5090528;28;20024;-55
2024/03/17 09:52:46;;;;;;;11.93;1.38;;;;;;;;;;5090031;28;20028;-56
2024/03/17 09:55:17;;;;;;;10.48;1.63;;;;;;;;;;5087764;28;20085;-57
2024/03/17 09:57:44;;;;;;;8.85;1.52;;;;;;;;;;5086521;28;20035;-57
2024/03/17 10:00:14;;;;;;;6.82;1.23;;;;;;;;;;5089111;28;20531;-57
2024/03/17 10:02:47;;;;;;;8.07;1.30;;;;;;;;;;5090055;28;20039;-56
2024/03/17 10:05:23;;;;;;;4.57;1.13;;;;;;;;;;5086591;28;20029;-57
2024/03/17 10:07:49;;;;;;;7.43;1.10;;;;;;;;;;5089317;28;20107;-56
2024/03/17 10:10:19;;;;;;;3.47;1.30;;;;;;;;;;5087546;28;20032;-56
2024/03/17 10:12:51;;;;;;;7.20;1.40;;;;;;;;;;5082537;28;20036;-57
2024/03/17 10:15:17;;;;;;;7.65;1.55;;;;;;;;;;5083259;28;20056;-57
2024/03/17 10:17:43;;;;;;;5.68;1.30;;;;;;;;;;5082355;28;20040;-56
2024/03/17 10:20:16;;;;;;;5.68;1.10;;;;;;;;;;5089182;28;20124;-57
2024/03/17 10:23:01;;;;;;;6.95;1.38;;;;;;;;;;5095817;28;20068;-57
2024/03/17 10:25:27;;;;;;;6.13;1.52;;;;;;;;;;5085356;28;20074;-56
2024/03/17 10:27:54;;;;;;;5.72;1.08;;;;;;;;;;5077065;28;20077;-57
2024/03/17 10:30:21;;;;;;;3.72;1.10;;;;;;;;;;5090038;28;20032;-57
2024/03/17 10:32:52;;;;;;;4.95;1.13;;;;;;;;;;5089825;28;20467;-57
2024/03/17 10:35:36;;;;;;;7.22;1.13;;;;;;;;;;5091350;28;20048;-57
2024/03/17 10:38:04;;;;;;;6.85;1.30;;;;;;;;;;5093806;28;20036;-54
2024/03/17 10:40:31;;;;;;;5.35;1.23;;;;;;;;;;5094654;28;20452;-58
2024/03/17 10:42:58;;;;;;;5.40;1.02;;;;;;;;;;5092619;28;20039;-56
2024/03/17 10:45:24;;;;;;;4.93;1.17;;;;;;;;;;5083921;28;20042;-56
2024/03/17 10:47:51;;;;;;;5.03;1.98;;;;;;;;;;5093831;28;20028;-56
2024/03/17 10:50:20;;;;;;;6.88;1.33;;;;;;;;;;5092634;28;20132;-57
2024/03/17 10:52:50;;;;;;;6.47;1.23;;;;;;;;;;5087102;28;20088;-56
2024/03/17 10:55:26;;;;;;;8.23;1.17;;;;;;;;;;5093425;28;20028;-56
2024/03/17 10:57:57;;;;;;;7.85;1.30;;;;;;;;;;5093205;28;20518;-56
2024/03/17 11:00:23;;;;;;;5.65;1.15;;;;;;;;;;5090033;28;20020;-57
2024/03/17 11:02:50;;;;;;;7.13;1.60;;;;;;;;;;5098289;28;20122;-57
2024/03/17 11:05:23;;;;;;;4.35;1.40;;;;;;;;;;5095488;28;20032;-56
2024/03/17 11:07:51;;;;;;;3.45;0.93;;;;;;;;;;5090703;28;20150;-58
2024/03/17 11:10:25;;;;;;;11.32;2.42;;;;;;;;;;5088949;28;20103;-57
2024/03/17 11:12:58;;;;;;;6.07;1.90;;;;;;;;;;5089384;28;20036;-57
2024/03/17 11:15:30;;;;;;;6.43;0.90;;;;;;;;;;5092057;28;20043;-56
2024/03/17 11:18:16;;;;;;;4.18;0.93;;;;;;;;;;5093080;28;20035;-57
2024/03/17 11:20:43;;;;;;;12.50;1.38;;;;;;;;;;5092931;28;20052;-57
2024/03/17 11:23:09;;;;;;;4.60;1.27;;;;;;;;;;5090578;28;20453;-58
2024/03/17 11:25:35;;;;;;;4.68;1.50;;;;;;;;;;5090782;28;20020;-58
2024/03/17 11:28:02;;;;;;;6.10;1.10;;;;;;;;;;5092561;28;20056;-58
2024/03/17 11:33:28;;;;;;;8.45;1.15;;;;;;;;;;5082302;28;20036;-57
2024/03/17 11:36:14;;;;;;;4.50;0.95;;;;;;;;;;5085492;28;20024;-57
2024/03/17 11:38:56;;;;;;;5.07;1.08;;;;;;;;;;5087323;28;20040;-57
2024/03/17 11:41:34;;;;;;;4.18;1.00;;;;;;;;;;5088343;28;20028;-57
2024/03/17 11:44:19;;;;;;;6.60;1.20;;;;;;;;;;5081341;28;20727;-58
2024/03/17 11:47:05;;;;;;;10.30;1.50;;;;;;;;;;5087536;28;20031;-58
2024/03/17 11:49:33;;;;;;;4.05;0.93;;;;;;;;;;5086908;28;20664;-58
2024/03/17 11:51:59;;;;;;;3.78;0.75;;;;;;;;;;5086720;28;20032;-57
2024/03/17 11:54:30;;;;;;;4.93;0.80;;;;;;;;;;5089957;28;20123;-58
2024/03/17 11:57:17;;;;;;;3.35;0.75;;;;;;;;;;5088549;28;20141;-56
2024/03/17 11:59:45;;;;;;;5.60;1.10;;;;;;;;;;5078137;28;20499;-57
2024/03/17 12:02:18;;;;;;;4.60;0.70;;;;;;;;;;5081329;28;20116;-57
2024/03/17 12:04:44;;;;;;;6.03;1.60;;;;;;;;;;5091329;28;20593;-57
2024/03/17 12:07:17;;;;;;;2.33;0.75;;;;;;;;;;5092146;28;20103;-60
2024/03/17 12:09:43;;;;;;;2.92;0.90;;;;;;;;;;5085041;28;20085;-57
2024/03/17 12:12:36;;;;;;;5.88;1.00;;;;;;;;;;5087081;28;20467;-60
2024/03/17 12:15:04;;;;;;;6.13;1.10;;;;;;;;;;5083289;28;20036;-60
2024/03/17 12:17:30;;;;;;;6.18;1.13;;;;;;;;;;5086321;28;20024;-60
2024/03/17 12:19:56;;;;;;;3.15;0.88;;;;;;;;;;5086828;28;21259;-61
2024/03/17 12:22:23;;;;;;;8.98;4.68;;;;;;;;;;5085738;28;20047;-60
2024/03/17 12:24:50;;;;;;;8.88;1.27;;;;;;;;;;5086731;28;20040;-60
2024/03/17 12:27:19;;;;;;;5.47;0.82;;;;;;;;;;5089679;28;20340;-60
2024/03/17 12:29:46;;;;;;;2.47;0.68;;;;;;;;;;5085855;28;20881;-60
2024/03/17 12:32:16;;;;;;;2.80;0.60;;;;;;;;;;5091754;28;20032;-60
2024/03/17 12:34:43;;;;;;;4.60;0.60;;;;;;;;;;5085035;28;20230;-60
2024/03/17 12:37:15;;;;;;;5.25;0.98;;;;;;;;;;5085330;28;20115;-60
2024/03/17 12:39:42;;;;;;;3.58;0.70;;;;;;;;;;5092442;28;20028;-61
2024/03/17 12:42:16;;;;;;;5.53;0.80;;;;;;;;;;5088874;28;20032;-60
2024/03/17 12:45:08;;;;;;;3.88;0.65;;;;;;;;;;5091555;28;20084;-61
2024/03/17 12:47:35;;;;;;;3.67;1.10;;;;;;;;;;5084589;28;20094;-61
2024/03/17 12:50:05;;;;;;;2.35;0.77;;;;;;;;;;5087758;28;20091;-59
2024/03/17 12:52:32;;;;;;;1.40;0.50;;;;;;;;;;5088238;28;20059;-59
2024/03/17 13:00:31;;;;;;;4.95;0.88;;;;;;;;;;5082355;28;20055;-59
2024/03/17 13:02:57;;;;;;;4.60;0.88;;;;;;;;;;5087841;28;20043;-59
2024/03/17 13:05:23;;;;;;;5.32;0.80;;;;;;;;;;5080890;28;20032;-59
2024/03/17 13:07:50;;;;;;;8.43;1.13;;;;;;;;;;5089733;28;20034;-61
2024/03/17 13:10:19;;;;;;;4.97;1.10;;;;;;;;;;5093452;28;20058;-60
2024/03/17 13:12:49;;;;;;;6.68;1.00;;;;;;;;;;5090194;28;20027;-59
2024/03/17 13:15:16;;;;;;;4.72;1.00;;;;;;;;;;5083984;28;20058;-58
2024/03/17 13:17:42;;;;;;;5.28;0.98;;;;;;;;;;5090353;28;20154;-59
2024/03/17 13:20:12;;;;;;;4.55;0.73;;;;;;;;;;5085318;28;20020;-59
2024/03/17 13:22:40;;;;;;;5.45;1.15;;;;;;;;;;5093232;28;20496;-61
2024/03/17 13:25:06;;;;;;;3.85;0.77;;;;;;;;;;5083277;28;20081;-58
2024/03/17 13:27:32;;;;;;;6.40;1.00;;;;;;;;;;5085608;28;20028;-57
2024/03/17 13:29:58;;;;;;;4.05;0.77;;;;;;;;;;5089707;28;20495;-59
2024/03/17 13:32:24;;;;;;;4.40;1.15;;;;;;;;;;5086402;28;20391;-58
2024/03/17 13:34:51;;;;;;;6.05;1.02;;;;;;;;;;5088790;28;20024;-59
2024/03/17 13:37:17;;;;;;;5.63;1.20;;;;;;;;;;5091117;28;20435;-58
2024/03/17 13:39:43;;;;;;;4.05;0.80;;;;;;;;;;5087303;28;20032;-61
2024/03/17 13:42:09;;;;;;;2.78;0.60;;;;;;;;;;5085720;28;20322;-60
2024/03/17 13:44:35;;;;;;;3.72;0.77;;;;;;;;;;5099535;28;20032;-60
2024/03/17 13:47:03;;;;;;;5.45;1.08;;;;;;;;;;5084529;28;20042;-57
2024/03/17 13:49:30;;;;;;;5.88;1.05;;;;;;;;;;5082135;28;20050;-59
2024/03/17 13:51:56;;;;;;;2.22;0.80;;;;;;;;;;5093046;28;20052;-59
2024/03/17 13:54:23;;;;;;;4.18;1.00;;;;;;;;;;5085600;28;20052;-59
2024/03/17 13:56:49;;;;;;;3.90;0.82;;;;;;;;;;5081812;28;20051;-60
2024/03/17 13:59:15;;;;;;;4.28;0.82;;;;;;;;;;5088564;28;20035;-60
2024/03/17 14:01:43;;;;;;;3.05;0.50;;;;;;;;;;5085132;28;20032;-59
2024/03/17 14:04:18;;;;;;;5.03;0.88;;;;;;;;;;5082573;28;20055;-60
2024/03/17 14:06:45;;;;;;;3.85;0.82;;;;;;;;;;5086130;28;20036;-60
2024/03/17 14:09:12;;;;;;;1.80;0.60;;;;;;;;;;5078824;28;20074;-59
2024/03/17 14:11:38;;;;;;;4.93;0.95;;;;;;;;;;5089061;28;20471;-59
2024/03/17 14:14:04;;;;;;;2.17;0.88;;;;;;;;;;5084943;28;20024;-60
2024/03/17 14:16:33;;;;;;;3.47;0.70;;;;;;;;;;5087881;28;20035;-60
2024/03/17 14:19:00;;;;;;;3.15;1.05;;;;;;;;;;5090491;28;20111;-59
2024/03/17 14:21:26;;;;;;;2.35;0.73;;;;;;;;;;5092084;28;20777;-60
2024/03/17 14:23:52;;;;;;;3.15;0.70;;;;;;;;;;5092145;28;20052;-59
2024/03/17 14:26:18;;;;;;;4.40;0.80;;;;;;;;;;5089963;28;20032;-59
2024/03/17 14:28:44;;;;;;;4.15;0.77;;;;;;;;;;5089343;28;20027;-60
2024/03/17 14:31:11;;;;;;;3.15;0.95;;;;;;;;;;5087416;28;20024;-60
2024/03/17 14:33:37;;;;;;;5.32;1.10;;;;;;;;;;5088935;28;20039;-60
2024/03/17 14:36:03;;;;;;;2.47;0.50;;;;;;;;;;5092001;28;20031;-60
2024/03/17 14:38:29;;;;;;;4.18;0.60;;;;;;;;;;5089123;28;20124;-60
2024/03/17 14:40:56;;;;;;;4.15;0.90;;;;;;;;;;5091074;28;20024;-60
2024/03/17 14:43:22;;;;;;;5.90;0.95;;;;;;;;;;5088463;28;20031;-60
2024/03/17 14:45:49;;;;;;;2.17;0.60;;;;;;;;;;5090680;28;20028;-59